KVNY/VNY METAR and TAF weather

Enter ICAO airport designator
Station Type Date Time Source
KVNY METAR 2019/10/15 08:51 UTC NOAA

KVNY 150851Z AUTO 26005KT 10SM CLR 14/11 A2998 RMK AO2 SLP147 T01390111 53005


Station Type Date Time Source
KVNY Decoded METAR 2019/10/15 08:51 UTC NOAA

VAN NUYS AIRPORT, CA, United States (KVNY) 34-13N 118-29W 245M
Oct 15, 2019 - 04:51 AM EDT / 2019.10.15 0851 UTC
Wind: from the W (260 degrees) at 6 MPH (5 KT):0
Visibility: 10 mile(s):0
Sky conditions: clear
Temperature: 57.0 F (13.9 C)
Dew Point: 52.0 F (11.1 C)
Relative Humidity: 83%
Pressure (altimeter): 29.98 in. Hg (1015 hPa)
Pressure tendency: 0.01 inches (0.5 hPa) higher than three hours ago
ob: KVNY 150851Z AUTO 26005KT 10SM CLR 14/11 A2998 RMK AO2 SLP147 T01390111 53005
cycle: 9

Station Type Date Time Source
KVNY TAF 2019/10/15 06:28 UTC NOAA

TAF KVNY 150525Z 1506/1606 VRB03KT P6SM SKC
FM152000 13006KT P6SM SKC
FM160200 VRB03KT P6SM SKC

Example: see airport list